createdAt,value
2018-12-18T00:02:17.551Z,98.83
2018-12-18T00:04:48.169Z,98.61
2018-12-18T00:07:17.628Z,98.32
2018-12-18T00:09:47.188Z,98.85
2018-12-18T00:12:22.023Z,98.49
2018-12-18T00:14:51.451Z,98.03
2018-12-18T00:17:20.859Z,98.27
2018-12-18T00:19:51.196Z,98.30
2018-12-18T00:22:20.663Z,98.16
2018-12-18T00:24:50.098Z,98.00
2018-12-18T00:27:19.601Z,98.12
2018-12-18T00:29:50.190Z,98.25
2018-12-18T00:32:19.676Z,97.65
2018-12-18T00:34:49.499Z,97.80
2018-12-18T00:37:18.955Z,97.79
2018-12-18T00:39:48.780Z,97.38
2018-12-18T00:42:18.625Z,97.62
2018-12-18T00:44:48.083Z,97.46
2018-12-18T00:47:17.898Z,97.94
2018-12-18T00:49:47.697Z,97.55
2018-12-18T00:52:17.222Z,97.00
2018-12-18T00:54:46.668Z,95.91
2018-12-18T00:57:16.304Z,94.90
2018-12-18T00:59:45.750Z,94.48
2018-12-18T01:02:15.217Z,93.93
2018-12-18T01:04:46.767Z,93.83
2018-12-18T01:07:16.440Z,93.69
2018-12-18T01:09:45.874Z,93.49
2018-12-18T01:12:15.388Z,93.33
2018-12-18T01:14:45.212Z,92.66
2018-12-18T01:17:14.685Z,93.13
2018-12-18T01:19:44.319Z,93.22
2018-12-18T01:22:13.807Z,92.26
2018-12-18T01:24:43.488Z,92.28
2018-12-18T01:27:14.076Z,91.25
2018-12-18T01:29:43.608Z,89.89
2018-12-18T01:32:13.135Z,90.41
2018-12-18T01:34:42.779Z,89.66
2018-12-18T01:37:13.227Z,89.31
2018-12-18T01:39:42.685Z,89.04
2018-12-18T01:42:12.146Z,89.61
2018-12-18T01:44:41.611Z,90.21
2018-12-18T01:47:11.247Z,90.12
2018-12-18T01:49:40.714Z,89.71
2018-12-18T01:52:10.187Z,89.21
2018-12-18T01:54:39.701Z,88.25
2018-12-18T01:57:09.311Z,88.73
2018-12-18T01:59:38.783Z,87.15
2018-12-18T02:02:09.131Z,87.36
2018-12-18T02:04:38.834Z,87.24
2018-12-18T02:07:08.657Z,87.19
2018-12-18T02:09:38.266Z,87.32
2018-12-18T02:12:07.907Z,87.13
2018-12-18T02:14:37.479Z,86.89
2018-12-18T02:17:06.961Z,86.62
2018-12-18T02:19:36.433Z,86.77
2018-12-18T02:22:05.888Z,86.76
2018-12-18T02:24:35.332Z,86.78
2018-12-18T02:27:04.820Z,86.04
2018-12-18T02:29:34.344Z,86.16
2018-12-18T02:32:04.516Z,86.92
2018-12-18T02:34:34.059Z,85.81
2018-12-18T02:37:03.879Z,85.58
2018-12-18T02:39:33.468Z,85.86
2018-12-18T02:42:03.124Z,86.15
2018-12-18T02:44:32.557Z,86.34
2018-12-18T02:47:02.056Z,86.12
2018-12-18T02:49:31.604Z,86.82
2018-12-18T02:52:01.691Z,86.87
2018-12-18T02:54:31.173Z,86.63
2018-12-18T02:57:00.691Z,86.60
2018-12-18T02:59:30.314Z,86.33
2018-12-18T03:02:01.969Z,87.16
2018-12-18T03:04:31.446Z,87.20
2018-12-18T03:07:01.725Z,87.21
2018-12-18T03:09:31.337Z,87.46
2018-12-18T03:12:00.997Z,87.03
2018-12-18T03:14:30.485Z,86.98
2018-12-18T03:17:00.232Z,87.80
2018-12-18T03:19:29.756Z,88.00
2018-12-18T03:21:59.558Z,88.14
2018-12-18T03:24:29.038Z,88.11
2018-12-18T03:26:58.506Z,88.54
2018-12-18T03:29:28.442Z,88.88
2018-12-18T03:32:01.750Z,88.96
2018-12-18T03:34:31.252Z,88.44
2018-12-18T03:37:00.760Z,88.79
2018-12-18T03:39:30.202Z,88.66
2018-12-18T03:41:59.615Z,88.70
2018-12-18T03:44:30.045Z,89.28
2018-12-18T03:46:59.539Z,88.84
2018-12-18T03:49:28.961Z,89.51
2018-12-18T03:52:04.223Z,88.97
2018-12-18T03:54:33.652Z,89.72
2018-12-18T03:57:06.780Z,88.83
2018-12-18T03:59:36.992Z,89.56
2018-12-18T04:02:10.076Z,89.92
2018-12-18T04:04:49.566Z,89.56
2018-12-18T04:07:19.217Z,88.57
2018-12-18T04:09:48.673Z,88.17
2018-12-18T04:12:23.984Z,89.14
2018-12-18T04:14:53.786Z,89.33
2018-12-18T04:17:23.259Z,89.39
2018-12-18T04:19:52.827Z,89.47
2018-12-18T04:22:22.446Z,88.80
2018-12-18T04:24:51.892Z,89.12
2018-12-18T04:27:21.345Z,88.77
2018-12-18T04:29:50.768Z,88.81
2018-12-18T04:32:20.199Z,88.79
2018-12-18T04:34:50.129Z,89.00
2018-12-18T04:37:19.583Z,89.38
2018-12-18T04:39:49.105Z,89.07
2018-12-18T04:42:18.584Z,89.25
2018-12-18T04:44:47.991Z,88.57
2018-12-18T04:47:17.813Z,88.95
2018-12-18T04:49:47.455Z,88.93
2018-12-18T04:52:17.690Z,89.66
2018-12-18T04:54:47.152Z,89.90
2018-12-18T04:57:16.788Z,90.10
2018-12-18T04:59:46.326Z,90.52
2018-12-18T05:02:15.833Z,90.25
2018-12-18T05:04:50.300Z,90.42
2018-12-18T05:07:19.556Z,90.26
2018-12-18T05:09:49.088Z,89.86
2018-12-18T05:12:18.521Z,90.27
2018-12-18T05:14:47.978Z,90.72
2018-12-18T05:17:17.482Z,91.29
2018-12-18T05:19:47.079Z,91.40
2018-12-18T05:22:16.740Z,92.03
2018-12-18T05:24:46.154Z,91.37
2018-12-18T05:27:15.587Z,91.33
2018-12-18T05:29:45.058Z,90.60
2018-12-18T05:32:14.560Z,89.78
2018-12-18T05:34:44.208Z,89.49
2018-12-18T05:37:13.823Z,89.79
2018-12-18T05:39:43.324Z,88.93
2018-12-18T05:42:12.796Z,88.59
2018-12-18T05:44:43.128Z,88.14
2018-12-18T05:47:13.508Z,87.39
2018-12-18T05:49:43.001Z,87.35
2018-12-18T05:52:12.753Z,87.46
2018-12-18T05:54:42.302Z,87.28
2018-12-18T05:57:11.834Z,87.88
2018-12-18T05:59:41.308Z,87.10
2018-12-18T06:02:10.784Z,87.57
2018-12-18T06:04:40.555Z,86.93
2018-12-18T06:07:10.203Z,86.45
2018-12-18T06:09:45.342Z,87.77
2018-12-18T06:12:14.811Z,87.63
2018-12-18T06:14:44.256Z,87.25
2018-12-18T06:17:13.741Z,87.42
2018-12-18T06:19:43.312Z,87.07
2018-12-18T06:22:12.935Z,86.83
2018-12-18T06:24:42.480Z,87.22
2018-12-18T06:27:11.999Z,87.44
2018-12-18T06:29:41.490Z,87.71
2018-12-18T06:32:11.025Z,87.42
2018-12-18T06:34:40.607Z,86.33
2018-12-18T06:37:10.823Z,85.41
2018-12-18T06:39:40.350Z,86.29
2018-12-18T06:42:09.984Z,85.90
2018-12-18T06:44:39.854Z,86.75
2018-12-18T06:47:09.417Z,87.12
2018-12-18T06:49:39.071Z,87.28
2018-12-18T06:52:08.558Z,87.15
2018-12-18T06:54:38.081Z,87.45
2018-12-18T06:57:08.617Z,86.74
2018-12-18T06:59:38.186Z,86.89
2018-12-18T07:02:08.678Z,86.92
2018-12-18T07:04:38.218Z,86.36
2018-12-18T07:07:07.859Z,84.23
2018-12-18T07:09:37.460Z,84.28
2018-12-18T07:12:07.223Z,83.68
2018-12-18T07:14:36.717Z,83.81
2018-12-18T07:17:12.321Z,83.26
2018-12-18T07:19:42.088Z,83.74
2018-12-18T07:22:13.194Z,83.61
2018-12-18T07:24:42.884Z,83.71
2018-12-18T07:27:12.511Z,84.28
2018-12-18T07:29:42.076Z,84.19
2018-12-18T07:32:11.794Z,83.00
2018-12-18T07:34:42.622Z,82.40
2018-12-18T07:37:12.589Z,83.73
2018-12-18T07:39:42.213Z,82.10
2018-12-18T07:42:12.010Z,81.67
2018-12-18T07:44:41.551Z,81.64
2018-12-18T07:47:11.208Z,81.50
2018-12-18T07:49:41.507Z,81.16
2018-12-18T07:52:11.996Z,81.12
2018-12-18T07:54:41.605Z,81.38
2018-12-18T07:57:11.167Z,81.44
2018-12-18T07:59:40.806Z,80.78
2018-12-18T08:02:11.007Z,81.09
2018-12-18T08:04:40.646Z,81.74
2018-12-18T08:07:10.264Z,81.30
2018-12-18T08:09:40.715Z,81.66
2018-12-18T08:12:10.507Z,81.40
2018-12-18T08:14:40.328Z,81.38
2018-12-18T08:17:10.100Z,81.66
2018-12-18T08:19:39.564Z,81.83
2018-12-18T08:22:12.424Z,81.40
2018-12-18T08:24:42.910Z,82.05
2018-12-18T08:27:12.462Z,82.19
2018-12-18T08:29:42.025Z,81.48
2018-12-18T08:32:11.483Z,81.74
2018-12-18T08:34:41.175Z,81.84
2018-12-18T08:37:10.669Z,82.28
2018-12-18T08:39:40.208Z,81.89
2018-12-18T08:42:10.043Z,82.65
2018-12-18T08:44:39.650Z,81.83
2018-12-18T08:47:09.199Z,82.01
2018-12-18T08:49:38.741Z,81.31
2018-12-18T08:52:09.214Z,81.42
2018-12-18T08:54:38.731Z,81.13
2018-12-18T08:57:08.288Z,81.07
2018-12-18T08:59:37.801Z,81.60
2018-12-18T09:02:07.501Z,81.59
2018-12-18T09:04:37.012Z,81.23
2018-12-18T09:07:06.506Z,81.28
2018-12-18T09:09:35.990Z,80.55
2018-12-18T09:12:05.633Z,79.95
2018-12-18T09:14:35.198Z,80.14
2018-12-18T09:17:07.053Z,80.04
2018-12-18T09:19:37.498Z,79.58
2018-12-18T09:22:07.108Z,79.86
2018-12-18T09:24:36.694Z,79.63
2018-12-18T09:27:06.244Z,79.17
2018-12-18T09:29:35.758Z,79.30
2018-12-18T09:32:05.259Z,79.00
2018-12-18T09:34:35.862Z,78.34
2018-12-18T09:37:05.460Z,78.48
2018-12-18T09:39:40.346Z,78.18
2018-12-18T09:42:15.496Z,78.18
2018-12-18T09:44:46.223Z,76.92
2018-12-18T09:47:15.755Z,77.43
2018-12-18T09:49:45.280Z,77.02
2018-12-18T09:52:14.802Z,76.91
2018-12-18T09:54:44.317Z,76.51
2018-12-18T09:57:18.957Z,75.85
2018-12-18T09:59:48.407Z,75.78
2018-12-18T10:02:18.016Z,75.66
2018-12-18T10:04:47.737Z,75.47
2018-12-18T10:07:17.284Z,75.75
2018-12-18T10:09:46.892Z,75.85
2018-12-18T10:12:20.893Z,75.27
2018-12-18T10:14:50.471Z,75.04
2018-12-18T10:17:19.988Z,73.41
2018-12-18T10:19:49.543Z,74.00
2018-12-18T10:22:19.260Z,73.88
2018-12-18T10:24:48.954Z,74.50
2018-12-18T10:27:18.486Z,74.25
2018-12-18T10:29:48.058Z,74.05
2018-12-18T10:32:17.706Z,73.29
2018-12-18T10:34:47.338Z,72.69
2018-12-18T10:37:17.126Z,73.06
2018-12-18T10:39:46.600Z,72.74
2018-12-18T10:42:16.119Z,74.29
2018-12-18T10:44:45.798Z,74.71
2018-12-18T10:47:15.416Z,74.72
2018-12-18T10:49:45.029Z,73.79
2018-12-18T10:52:14.652Z,73.62
2018-12-18T10:54:44.406Z,73.59
2018-12-18T10:57:14.121Z,74.08
2018-12-18T10:59:43.733Z,74.50
2018-12-18T11:02:13.874Z,74.52
2018-12-18T11:04:44.437Z,74.42
2018-12-18T11:07:13.981Z,73.27
2018-12-18T11:09:43.535Z,74.10
2018-12-18T11:12:15.203Z,73.95
2018-12-18T11:14:44.728Z,73.86
2018-12-18T11:17:14.299Z,73.93
2018-12-18T11:19:43.927Z,74.10
2018-12-18T11:22:13.665Z,74.74
2018-12-18T11:24:43.221Z,75.44
2018-12-18T11:27:12.832Z,75.69
2018-12-18T11:29:42.634Z,75.50
2018-12-18T11:32:12.200Z,75.08
2018-12-18T11:34:41.704Z,76.04
2018-12-18T11:37:11.797Z,75.19
2018-12-18T11:39:41.509Z,75.00
2018-12-18T11:42:11.904Z,75.37
2018-12-18T11:44:41.474Z,75.12
2018-12-18T11:47:11.093Z,75.30
2018-12-18T11:49:40.626Z,74.98
2018-12-18T11:52:13.884Z,74.71
2018-12-18T11:54:44.700Z,74.97
2018-12-18T11:57:17.661Z,75.43
2018-12-18T11:59:47.992Z,74.93
2018-12-18T12:02:19.184Z,75.09
2018-12-18T12:04:50.894Z,75.29
2018-12-18T12:07:20.553Z,75.90
2018-12-18T12:09:50.128Z,75.47
2018-12-18T12:12:19.821Z,75.76
2018-12-18T12:14:50.036Z,75.77
2018-12-18T12:17:19.963Z,75.79
2018-12-18T12:19:49.585Z,75.70
2018-12-18T12:22:19.080Z,75.64
2018-12-18T12:24:48.589Z,75.98
2018-12-18T12:27:23.114Z,76.56
2018-12-18T12:29:52.600Z,76.45
2018-12-18T12:32:22.105Z,77.25
2018-12-18T12:34:51.743Z,77.50
2018-12-18T12:37:21.237Z,77.51
2018-12-18T12:39:50.738Z,78.22
2018-12-18T12:42:20.367Z,78.90
2018-12-18T12:44:49.974Z,79.10
2018-12-18T12:47:19.488Z,79.60
2018-12-18T12:49:49.143Z,79.54
2018-12-18T12:52:18.745Z,79.67
2018-12-18T12:54:48.403Z,79.26
2018-12-18T12:57:18.209Z,79.69
2018-12-18T12:59:47.945Z,79.70
2018-12-18T13:02:17.484Z,80.04
2018-12-18T13:04:47.688Z,80.46
2018-12-18T13:07:17.273Z,81.07
2018-12-18T13:09:46.936Z,81.51
2018-12-18T13:12:16.539Z,81.95
2018-12-18T13:14:46.463Z,82.29
2018-12-18T13:17:16.124Z,82.43
2018-12-18T13:19:45.717Z,82.86
2018-12-18T13:22:15.233Z,82.91
2018-12-18T13:24:44.799Z,83.00
2018-12-18T13:27:14.412Z,83.05
2018-12-18T13:29:44.236Z,82.67
2018-12-18T13:32:13.769Z,82.65
2018-12-18T13:34:43.337Z,82.72
2018-12-18T13:37:12.881Z,82.97
2018-12-18T13:39:42.407Z,82.71
2018-12-18T13:42:12.093Z,82.80
2018-12-18T13:44:41.809Z,82.93
2018-12-18T13:47:12.760Z,83.13
2018-12-18T13:49:42.352Z,83.62
2018-12-18T13:52:12.247Z,84.17
2018-12-18T13:54:41.845Z,84.44
2018-12-18T13:57:11.983Z,85.03
2018-12-18T13:59:41.590Z,85.67
2018-12-18T14:02:11.098Z,86.28
2018-12-18T14:04:40.772Z,86.42
2018-12-18T14:07:10.381Z,86.07
2018-12-18T14:09:40.090Z,84.97
2018-12-18T14:12:09.772Z,83.74
2018-12-18T14:14:39.292Z,83.13
2018-12-18T14:17:09.333Z,82.75
2018-12-18T14:19:40.573Z,82.21
2018-12-18T14:22:10.647Z,82.06
2018-12-18T14:24:40.323Z,82.19
2018-12-18T14:27:10.217Z,82.77
2018-12-18T14:29:39.767Z,83.35
2018-12-18T14:32:09.483Z,84.25
2018-12-18T14:34:39.031Z,85.08
2018-12-18T14:37:08.826Z,85.80
2018-12-18T14:39:39.201Z,86.87
2018-12-18T14:42:08.760Z,87.78
2018-12-18T14:44:38.304Z,88.54
2018-12-18T14:47:07.794Z,89.48
2018-12-18T14:49:37.350Z,90.24
2018-12-18T14:52:06.951Z,90.74
2018-12-18T14:54:36.680Z,91.61
2018-12-18T14:57:06.155Z,92.18
2018-12-18T14:59:42.134Z,93.26
2018-12-18T15:02:15.370Z,93.57
2018-12-18T15:04:45.280Z,94.26
2018-12-18T15:07:16.865Z,94.97
2018-12-18T15:09:46.774Z,95.60
2018-12-18T15:12:16.295Z,96.12
2018-12-18T15:14:48.680Z,96.60
2018-12-18T15:17:21.664Z,97.26
2018-12-18T15:19:51.795Z,97.71
2018-12-18T15:22:23.713Z,97.65
2018-12-18T15:24:54.076Z,98.45
2018-12-18T15:27:24.857Z,99.13
2018-12-18T15:29:55.195Z,98.93
2018-12-18T15:32:25.082Z,99.53
2018-12-18T15:34:56.893Z,100.00
2018-12-18T15:37:27.631Z,100.00
2018-12-18T15:39:57.175Z,100.00
2018-12-18T15:42:26.697Z,100.00
2018-12-18T15:44:57.153Z,100.00
2018-12-18T15:47:29.474Z,100.00
2018-12-18T15:50:00.560Z,100.00
2018-12-18T15:52:30.031Z,100.00
2018-12-18T15:54:59.544Z,100.00
2018-12-18T15:57:29.057Z,100.00
2018-12-18T15:59:58.578Z,100.00
2018-12-18T16:02:28.256Z,100.00
2018-12-18T16:04:57.831Z,100.00
2018-12-18T16:07:28.774Z,100.00
2018-12-18T16:10:02.218Z,100.00
2018-12-18T16:12:34.043Z,100.00
2018-12-18T16:15:04.759Z,100.00
2018-12-18T16:17:36.684Z,100.00
2018-12-18T16:20:11.841Z,100.00
2018-12-18T16:22:41.427Z,100.00
2018-12-18T16:25:11.062Z,100.00
2018-12-18T16:27:40.757Z,100.00
2018-12-18T16:30:10.299Z,100.00
2018-12-18T16:32:41.915Z,100.00
2018-12-18T16:35:14.628Z,100.00
2018-12-18T16:37:52.416Z,100.00
2018-12-18T16:40:22.494Z,100.00
2018-12-18T16:42:54.150Z,100.00
2018-12-18T16:45:26.326Z,100.00
2018-12-18T16:47:58.315Z,100.00
2018-12-18T16:50:31.313Z,100.00
2018-12-18T16:53:01.317Z,100.00
2018-12-18T16:55:31.882Z,100.00
2018-12-18T16:58:01.655Z,100.00
2018-12-18T17:00:31.231Z,100.00
2018-12-18T17:03:00.767Z,100.00
2018-12-18T17:05:30.317Z,100.00
2018-12-18T17:07:59.869Z,100.00
2018-12-18T17:10:29.399Z,100.00
2018-12-18T17:12:59.216Z,100.00
2018-12-18T17:15:29.024Z,100.00
2018-12-18T17:17:58.587Z,100.00
2018-12-18T17:20:31.111Z,100.00
2018-12-18T17:23:01.781Z,100.00
2018-12-18T17:25:31.451Z,100.00
2018-12-18T17:28:01.113Z,100.00
2018-12-18T17:30:30.637Z,100.00
2018-12-18T17:33:00.276Z,100.00
2018-12-18T17:35:33.235Z,100.00
2018-12-18T17:38:10.856Z,100.00
2018-12-18T17:40:42.444Z,100.00
2018-12-18T17:43:12.649Z,100.00
2018-12-18T17:45:43.113Z,100.00
2018-12-18T17:48:14.984Z,100.00
2018-12-18T17:50:45.400Z,100.00
2018-12-18T17:53:17.520Z,100.00
2018-12-18T17:55:47.270Z,100.00
2018-12-18T17:58:16.902Z,100.00
2018-12-18T18:00:46.609Z,100.00
2018-12-18T18:03:16.302Z,100.00
2018-12-18T18:05:45.876Z,100.00
2018-12-18T18:08:15.568Z,100.00
2018-12-18T18:10:45.219Z,100.00
2018-12-18T18:13:14.781Z,100.00
2018-12-18T18:15:44.472Z,100.00
2018-12-18T18:18:14.130Z,100.00
2018-12-18T18:20:43.690Z,100.00
2018-12-18T18:23:13.497Z,100.00
2018-12-18T18:25:43.361Z,100.00
2018-12-18T18:28:12.865Z,100.00
2018-12-18T18:30:43.444Z,100.00
2018-12-18T18:33:13.065Z,100.00
2018-12-18T18:35:42.632Z,100.00
2018-12-18T18:38:12.275Z,100.00
2018-12-18T18:40:41.892Z,100.00
2018-12-18T18:43:11.502Z,100.00
2018-12-18T18:45:41.067Z,100.00
2018-12-18T18:48:10.712Z,100.00
2018-12-18T18:50:41.094Z,100.00
2018-12-18T18:53:10.799Z,100.00
2018-12-18T18:55:40.424Z,100.00
2018-12-18T18:58:10.083Z,100.00
2018-12-18T19:00:39.684Z,100.00
2018-12-18T19:03:09.232Z,100.00
2018-12-18T19:05:38.921Z,100.00
2018-12-18T19:08:08.618Z,100.00
2018-12-18T19:10:38.146Z,100.00
2018-12-18T19:13:07.778Z,100.00
2018-12-18T19:15:37.576Z,100.00
2018-12-18T19:18:07.438Z,100.00
2018-12-18T19:20:37.341Z,100.00
2018-12-18T19:23:06.958Z,100.00
2018-12-18T19:25:36.506Z,100.00
2018-12-18T19:28:09.026Z,100.00
2018-12-18T19:30:39.757Z,100.00
2018-12-18T19:33:12.554Z,100.00
2018-12-18T19:35:42.908Z,100.00
2018-12-18T19:38:12.424Z,100.00
2018-12-18T19:40:42.008Z,100.00
2018-12-18T19:43:11.964Z,100.00
2018-12-18T19:45:48.147Z,100.00
2018-12-18T19:48:20.904Z,100.00
2018-12-18T19:50:52.179Z,100.00
2018-12-18T19:53:24.603Z,100.00
2018-12-18T19:55:55.253Z,100.00
2018-12-18T19:58:42.882Z,100.00
2018-12-18T20:01:13.098Z,100.00
2018-12-18T20:03:42.943Z,100.00
2018-12-18T20:06:12.712Z,100.00
2018-12-18T20:08:42.430Z,100.00
2018-12-18T20:11:12.367Z,100.00
2018-12-18T20:13:42.074Z,100.00
2018-12-18T20:16:11.750Z,100.00
2018-12-18T20:18:41.370Z,100.00
2018-12-18T20:21:10.905Z,100.00
2018-12-18T20:23:40.525Z,100.00
2018-12-18T20:26:11.031Z,100.00
2018-12-18T20:28:41.830Z,100.00
2018-12-18T20:31:11.614Z,100.00
2018-12-18T20:33:41.111Z,100.00
2018-12-18T20:36:10.673Z,100.00
2018-12-18T20:38:40.329Z,100.00
2018-12-18T20:41:09.925Z,100.00
2018-12-18T20:43:39.628Z,100.00
2018-12-18T20:46:17.703Z,100.00
2018-12-18T20:48:47.254Z,100.00
2018-12-18T20:51:16.784Z,100.00
2018-12-18T20:53:47.057Z,100.00
2018-12-18T20:56:16.761Z,100.00
2018-12-18T20:58:46.307Z,100.00
2018-12-18T21:01:17.620Z,100.00
2018-12-18T21:03:48.113Z,100.00
2018-12-18T21:06:21.644Z,100.00
2018-12-18T21:08:54.730Z,100.00
2018-12-18T21:11:25.258Z,100.00
2018-12-18T21:13:54.956Z,100.00
2018-12-18T21:16:24.575Z,100.00
2018-12-18T21:18:54.219Z,100.00
2018-12-18T21:21:23.893Z,100.00
2018-12-18T21:23:54.613Z,100.00
2018-12-18T21:26:25.701Z,100.00
2018-12-18T21:28:56.979Z,100.00
2018-12-18T21:31:27.515Z,100.00
2018-12-18T21:33:58.205Z,100.00
2018-12-18T21:36:28.056Z,100.00
2018-12-18T21:38:57.685Z,100.00
2018-12-18T21:41:27.354Z,100.00
2018-12-18T21:43:57.564Z,100.00
2018-12-18T21:46:27.229Z,100.00
2018-12-18T21:48:56.829Z,100.00
2018-12-18T21:51:26.396Z,100.00
2018-12-18T21:53:55.977Z,100.00
2018-12-18T21:56:25.603Z,100.00
2018-12-18T21:58:55.128Z,100.00
2018-12-18T22:01:24.852Z,100.00
2018-12-18T22:03:54.446Z,100.00
2018-12-18T22:06:24.156Z,100.00
2018-12-18T22:08:53.941Z,100.00
2018-12-18T22:11:23.691Z,100.00
2018-12-18T22:13:53.300Z,100.00
2018-12-18T22:16:22.933Z,100.00
2018-12-18T22:18:53.328Z,100.00
2018-12-18T22:21:23.884Z,100.00
2018-12-18T22:23:53.544Z,100.00
2018-12-18T22:26:23.179Z,100.00
2018-12-18T22:28:52.736Z,100.00
2018-12-18T22:31:23.068Z,100.00
2018-12-18T22:33:52.662Z,100.00
2018-12-18T22:36:22.269Z,100.00
2018-12-18T22:38:51.898Z,100.00
2018-12-18T22:41:21.464Z,100.00
2018-12-18T22:43:51.131Z,100.00
2018-12-18T22:46:20.838Z,100.00
2018-12-18T22:48:50.435Z,100.00
2018-12-18T22:51:20.854Z,100.00
2018-12-18T22:53:50.381Z,100.00
2018-12-18T22:56:19.968Z,100.00
2018-12-18T22:58:49.586Z,100.00
2018-12-18T23:01:24.396Z,100.00
2018-12-18T23:03:55.234Z,100.00
2018-12-18T23:06:24.797Z,100.00
2018-12-18T23:08:54.892Z,100.00
2018-12-18T23:11:24.668Z,100.00
2018-12-18T23:13:54.196Z,100.00
2018-12-18T23:16:23.852Z,100.00
2018-12-18T23:18:53.538Z,100.00
2018-12-18T23:21:23.107Z,100.00
2018-12-18T23:23:52.788Z,100.00
2018-12-18T23:26:22.405Z,100.00
2018-12-18T23:28:52.001Z,100.00
2018-12-18T23:31:21.700Z,100.00
2018-12-18T23:33:51.401Z,100.00
2018-12-18T23:36:20.928Z,100.00
2018-12-18T23:38:56.599Z,100.00
2018-12-18T23:41:22.078Z,100.00
2018-12-18T23:43:51.658Z,100.00
2018-12-18T23:46:26.908Z,100.00
2018-12-18T23:48:56.481Z,100.00
2018-12-18T23:51:26.004Z,100.00
2018-12-18T23:53:55.647Z,100.00
2018-12-18T23:56:25.264Z,100.00
2018-12-18T23:58:54.959Z,100.00
